sensor_id;sensor_type;location;lat;lon;timestamp;pressure;altitude;pressure_sealevel;temperature;humidity
4972;BME280;2501;51.214;6.768;2023-01-27T00:01:16;101985.00;;;3.63;97.22
4972;BME280;2501;51.214;6.768;2023-01-27T00:03:45;101985.03;;;3.65;96.36
4972;BME280;2501;51.214;6.768;2023-01-27T00:06:13;101980.66;;;3.64;95.80
4972;BME280;2501;51.214;6.768;2023-01-27T00:08:41;101987.00;;;3.69;95.33
4972;BME280;2501;51.214;6.768;2023-01-27T00:11:10;101981.09;;;3.55;94.23
4972;BME280;2501;51.214;6.768;2023-01-27T00:13:51;101983.44;;;3.67;93.59
4972;BME280;2501;51.214;6.768;2023-01-27T00:16:22;101983.03;;;3.75;92.88
4972;BME280;2501;51.214;6.768;2023-01-27T00:18:50;101987.09;;;3.70;92.31
4972;BME280;2501;51.214;6.768;2023-01-27T00:21:19;101983.84;;;3.74;91.91
4972;BME280;2501;51.214;6.768;2023-01-27T00:23:59;101989.69;;;3.70;91.62
4972;BME280;2501;51.214;6.768;2023-01-27T00:26:43;101992.19;;;3.69;91.99
4972;BME280;2501;51.214;6.768;2023-01-27T00:29:14;101983.44;;;3.67;92.15
4972;BME280;2501;51.214;6.768;2023-01-27T00:31:45;101995.69;;;3.69;92.10
4972;BME280;2501;51.214;6.768;2023-01-27T00:34:26;101990.50;;;3.69;92.23
4972;BME280;2501;51.214;6.768;2023-01-27T00:36:54;101989.94;;;3.59;92.76
4972;BME280;2501;51.214;6.768;2023-01-27T00:39:23;101991.03;;;3.64;92.97
4972;BME280;2501;51.214;6.768;2023-01-27T00:41:51;101998.19;;;3.68;93.47
4972;BME280;2501;51.214;6.768;2023-01-27T00:44:20;101992.81;;;3.65;93.62
4972;BME280;2501;51.214;6.768;2023-01-27T00:46:51;101997.53;;;3.72;93.68
4972;BME280;2501;51.214;6.768;2023-01-27T00:49:19;101999.81;;;3.66;93.79
4972;BME280;2501;51.214;6.768;2023-01-27T00:51:47;102007.03;;;3.71;94.13
4972;BME280;2501;51.214;6.768;2023-01-27T00:54:16;102001.69;;;3.68;94.39
4972;BME280;2501;51.214;6.768;2023-01-27T00:56:44;102001.38;;;3.62;94.62
4972;BME280;2501;51.214;6.768;2023-01-27T00:59:13;102003.47;;;3.69;94.76
4972;BME280;2501;51.214;6.768;2023-01-27T01:01:41;102004.59;;;3.58;94.50
4972;BME280;2501;51.214;6.768;2023-01-27T01:04:12;102010.59;;;3.73;94.48
4972;BME280;2501;51.214;6.768;2023-01-27T01:06:40;102008.81;;;3.72;94.44
4972;BME280;2501;51.214;6.768;2023-01-27T01:09:09;102009.78;;;3.74;94.11
4972;BME280;2501;51.214;6.768;2023-01-27T01:11:37;102017.31;;;3.70;93.98
4972;BME280;2501;51.214;6.768;2023-01-27T01:14:05;102015.44;;;3.51;94.29
4972;BME280;2501;51.214;6.768;2023-01-27T01:16:34;102024.13;;;3.52;94.65
4972;BME280;2501;51.214;6.768;2023-01-27T01:19:02;102013.75;;;3.52;93.84
4972;BME280;2501;51.214;6.768;2023-01-27T01:21:33;102011.94;;;3.50;92.94
4972;BME280;2501;51.214;6.768;2023-01-27T01:24:02;102017.56;;;3.58;92.48
4972;BME280;2501;51.214;6.768;2023-01-27T01:26:30;102023.94;;;3.48;92.26
4972;BME280;2501;51.214;6.768;2023-01-27T01:28:59;102012.47;;;3.60;92.27
4972;BME280;2501;51.214;6.768;2023-01-27T01:31:27;102019.34;;;3.59;92.33
4972;BME280;2501;51.214;6.768;2023-01-27T01:33:55;102015.59;;;3.54;92.32
4972;BME280;2501;51.214;6.768;2023-01-27T01:36:24;102018.66;;;3.47;92.56
4972;BME280;2501;51.214;6.768;2023-01-27T01:38:56;102025.63;;;3.48;92.79
4972;BME280;2501;51.214;6.768;2023-01-27T01:41:25;102025.44;;;3.60;92.77
4972;BME280;2501;51.214;6.768;2023-01-27T01:43:54;102036.53;;;3.57;93.11
4972;BME280;2501;51.214;6.768;2023-01-27T01:46:22;102026.97;;;3.56;93.15
4972;BME280;2501;51.214;6.768;2023-01-27T01:48:52;102037.81;;;3.49;93.49
4972;BME280;2501;51.214;6.768;2023-01-27T01:51:26;102036.63;;;3.59;93.70
4972;BME280;2501;51.214;6.768;2023-01-27T01:54:02;102029.66;;;3.58;93.51
4972;BME280;2501;51.214;6.768;2023-01-27T01:56:34;102035.88;;;3.45;93.45
4972;BME280;2501;51.214;6.768;2023-01-27T01:59:08;102028.09;;;3.45;93.53
4972;BME280;2501;51.214;6.768;2023-01-27T02:01:38;102035.22;;;3.49;93.00
4972;BME280;2501;51.214;6.768;2023-01-27T02:04:09;102034.63;;;3.38;93.02
4972;BME280;2501;51.214;6.768;2023-01-27T02:06:42;102036.16;;;3.35;93.31
4972;BME280;2501;51.214;6.768;2023-01-27T02:09:15;102030.88;;;3.33;92.98
4972;BME280;2501;51.214;6.768;2023-01-27T02:11:45;102034.47;;;3.35;93.60
4972;BME280;2501;51.214;6.768;2023-01-27T02:14:14;102044.56;;;3.45;93.35
4972;BME280;2501;51.214;6.768;2023-01-27T02:16:43;102036.69;;;3.44;92.83
4972;BME280;2501;51.214;6.768;2023-01-27T02:19:20;102032.94;;;3.39;92.76
4972;BME280;2501;51.214;6.768;2023-01-27T02:21:51;102036.56;;;3.26;93.15
4972;BME280;2501;51.214;6.768;2023-01-27T02:24:30;102030.88;;;3.33;93.26
4972;BME280;2501;51.214;6.768;2023-01-27T02:27:04;102037.69;;;3.31;93.63
4972;BME280;2501;51.214;6.768;2023-01-27T02:29:32;102047.59;;;3.38;93.93
4972;BME280;2501;51.214;6.768;2023-01-27T02:32:01;102044.13;;;3.38;93.96
4972;BME280;2501;51.214;6.768;2023-01-27T02:34:32;102051.81;;;3.36;94.38
4972;BME280;2501;51.214;6.768;2023-01-27T02:37:06;102056.81;;;3.33;94.72
4972;BME280;2501;51.214;6.768;2023-01-27T02:39:40;102061.91;;;3.32;94.95
4972;BME280;2501;51.214;6.768;2023-01-27T02:42:14;102063.84;;;3.05;95.11
4972;BME280;2501;51.214;6.768;2023-01-27T02:44:44;102061.78;;;3.14;95.30
4972;BME280;2501;51.214;6.768;2023-01-27T02:47:13;102058.94;;;2.95;94.56
4972;BME280;2501;51.214;6.768;2023-01-27T02:49:41;102060.78;;;3.12;94.18
4972;BME280;2501;51.214;6.768;2023-01-27T02:52:09;102068.28;;;3.22;93.65
4972;BME280;2501;51.214;6.768;2023-01-27T02:54:38;102069.63;;;3.15;92.35
4972;BME280;2501;51.214;6.768;2023-01-27T02:57:06;102072.94;;;3.13;91.98
4972;BME280;2501;51.214;6.768;2023-01-27T02:59:38;102070.75;;;2.90;92.10
4972;BME280;2501;51.214;6.768;2023-01-27T03:02:06;102085.59;;;3.07;91.93
4972;BME280;2501;51.214;6.768;2023-01-27T03:04:39;102078.81;;;2.94;92.09
4972;BME280;2501;51.214;6.768;2023-01-27T03:07:07;102078.34;;;2.87;91.74
4972;BME280;2501;51.214;6.768;2023-01-27T03:09:35;102078.97;;;2.83;91.82
4972;BME280;2501;51.214;6.768;2023-01-27T03:12:04;102081.75;;;2.86;91.90
4972;BME280;2501;51.214;6.768;2023-01-27T03:14:51;102083.44;;;2.85;91.72
4972;BME280;2501;51.214;6.768;2023-01-27T03:17:32;102078.44;;;2.88;91.71
4972;BME280;2501;51.214;6.768;2023-01-27T03:20:13;102080.75;;;2.84;91.36
4972;BME280;2501;51.214;6.768;2023-01-27T03:22:42;102079.69;;;2.80;91.47
4972;BME280;2501;51.214;6.768;2023-01-27T03:25:10;102084.34;;;2.86;91.86
4972;BME280;2501;51.214;6.768;2023-01-27T03:27:39;102077.66;;;2.89;91.77
4972;BME280;2501;51.214;6.768;2023-01-27T03:30:10;102084.97;;;2.82;91.57
4972;BME280;2501;51.214;6.768;2023-01-27T03:32:39;102087.28;;;2.62;92.47
4972;BME280;2501;51.214;6.768;2023-01-27T03:35:11;102087.13;;;2.59;92.91
4972;BME280;2501;51.214;6.768;2023-01-27T03:37:41;102089.16;;;2.79;92.90
4972;BME280;2501;51.214;6.768;2023-01-27T03:40:22;102089.44;;;2.55;93.51
4972;BME280;2501;51.214;6.768;2023-01-27T03:43:03;102075.69;;;2.56;93.84
4972;BME280;2501;51.214;6.768;2023-01-27T03:45:49;102088.44;;;2.67;93.94
4972;BME280;2501;51.214;6.768;2023-01-27T03:48:30;102083.63;;;2.59;94.22
4972;BME280;2501;51.214;6.768;2023-01-27T03:50:59;102079.69;;;2.65;94.50
4972;BME280;2501;51.214;6.768;2023-01-27T03:53:28;102076.09;;;2.63;94.93
4972;BME280;2501;51.214;6.768;2023-01-27T03:55:56;102075.41;;;2.66;94.92
4972;BME280;2501;51.214;6.768;2023-01-27T03:58:27;102082.88;;;2.61;95.12
4972;BME280;2501;51.214;6.768;2023-01-27T04:01:00;102083.44;;;2.70;95.19
4972;BME280;2501;51.214;6.768;2023-01-27T04:03:30;102085.06;;;2.68;95.37
4972;BME280;2501;51.214;6.768;2023-01-27T04:06:13;102077.75;;;2.76;95.58
4972;BME280;2501;51.214;6.768;2023-01-27T04:08:55;102083.78;;;2.62;95.44
4972;BME280;2501;51.214;6.768;2023-01-27T04:11:24;102084.88;;;2.65;95.85
4972;BME280;2501;51.214;6.768;2023-01-27T04:14:06;102083.25;;;2.67;95.73
4972;BME280;2501;51.214;6.768;2023-01-27T04:16:38;102078.09;;;2.67;96.14
4972;BME280;2501;51.214;6.768;2023-01-27T04:19:08;102084.53;;;2.74;96.33
4972;BME280;2501;51.214;6.768;2023-01-27T04:21:38;102092.22;;;2.72;96.29
4972;BME280;2501;51.214;6.768;2023-01-27T04:24:07;102094.19;;;2.76;96.80
4972;BME280;2501;51.214;6.768;2023-01-27T04:26:42;102100.97;;;2.74;96.71
4972;BME280;2501;51.214;6.768;2023-01-27T04:29:12;102098.47;;;2.76;97.15
4972;BME280;2501;51.214;6.768;2023-01-27T04:31:43;102098.00;;;2.68;97.68
4972;BME280;2501;51.214;6.768;2023-01-27T04:34:12;102105.06;;;2.71;98.33
4972;BME280;2501;51.214;6.768;2023-01-27T04:36:41;102104.88;;;2.68;99.17
4972;BME280;2501;51.214;6.768;2023-01-27T04:39:09;102100.88;;;2.58;99.99
4972;BME280;2501;51.214;6.768;2023-01-27T04:41:38;102103.19;;;2.54;100.00
4972;BME280;2501;51.214;6.768;2023-01-27T04:44:06;102105.94;;;2.57;100.00
4972;BME280;2501;51.214;6.768;2023-01-27T04:46:35;102116.34;;;2.43;100.00
4972;BME280;2501;51.214;6.768;2023-01-27T04:49:07;102113.94;;;2.47;100.00
4972;BME280;2501;51.214;6.768;2023-01-27T04:51:36;102117.41;;;2.32;100.00
4972;BME280;2501;51.214;6.768;2023-01-27T04:54:04;102119.59;;;2.39;100.00
4972;BME280;2501;51.214;6.768;2023-01-27T04:56:35;102121.03;;;2.49;100.00
4972;BME280;2501;51.214;6.768;2023-01-27T04:59:05;102112.72;;;2.40;100.00
4972;BME280;2501;51.214;6.768;2023-01-27T05:01:34;102117.81;;;2.53;100.00
4972;BME280;2501;51.214;6.768;2023-01-27T05:04:02;102113.50;;;2.39;100.00
4972;BME280;2501;51.214;6.768;2023-01-27T05:06:34;102124.78;;;2.54;100.00
4972;BME280;2501;51.214;6.768;2023-01-27T05:09:02;102124.78;;;2.54;100.00
4972;BME280;2501;51.214;6.768;2023-01-27T05:11:30;102114.34;;;2.53;100.00
4972;BME280;2501;51.214;6.768;2023-01-27T05:14:05;102102.56;;;2.58;100.00
4972;BME280;2501;51.214;6.768;2023-01-27T05:16:38;102126.09;;;2.48;100.00
4972;BME280;2501;51.214;6.768;2023-01-27T05:19:07;102120.22;;;2.50;100.00
4972;BME280;2501;51.214;6.768;2023-01-27T05:21:38;102121.81;;;2.48;100.00
4972;BME280;2501;51.214;6.768;2023-01-27T05:24:09;102127.81;;;2.47;100.00
4972;BME280;2501;51.214;6.768;2023-01-27T05:26:37;102125.22;;;2.47;100.00
4972;BME280;2501;51.214;6.768;2023-01-27T05:29:06;102127.28;;;2.53;100.00
4972;BME280;2501;51.214;6.768;2023-01-27T05:31:34;102128.00;;;2.50;100.00
4972;BME280;2501;51.214;6.768;2023-01-27T05:34:03;102130.88;;;2.55;100.00
4972;BME280;2501;51.214;6.768;2023-01-27T05:36:31;102135.25;;;2.56;100.00
4972;BME280;2501;51.214;6.768;2023-01-27T05:39:02;102135.06;;;2.53;100.00
4972;BME280;2501;51.214;6.768;2023-01-27T05:41:31;102143.53;;;2.50;100.00
4972;BME280;2501;51.214;6.768;2023-01-27T05:43:59;102133.19;;;2.65;100.00
4972;BME280;2501;51.214;6.768;2023-01-27T05:46:29;102142.03;;;2.68;100.00
4972;BME280;2501;51.214;6.768;2023-01-27T05:48:59;102141.25;;;2.69;100.00
4972;BME280;2501;51.214;6.768;2023-01-27T05:51:31;102148.81;;;2.66;100.00
4972;BME280;2501;51.214;6.768;2023-01-27T05:54:02;102134.47;;;2.71;100.00
4972;BME280;2501;51.214;6.768;2023-01-27T05:56:32;102144.72;;;2.70;100.00
4972;BME280;2501;51.214;6.768;2023-01-27T05:59:01;102139.97;;;2.63;100.00
4972;BME280;2501;51.214;6.768;2023-01-27T06:01:31;102143.66;;;2.66;100.00
4972;BME280;2501;51.214;6.768;2023-01-27T06:04:00;102146.22;;;2.66;100.00
4972;BME280;2501;51.214;6.768;2023-01-27T06:06:30;102134.47;;;2.71;100.00
4972;BME280;2501;51.214;6.768;2023-01-27T06:08:59;102135.25;;;2.70;100.00
4972;BME280;2501;51.214;6.768;2023-01-27T06:11:30;102148.91;;;2.68;100.00
4972;BME280;2501;51.214;6.768;2023-01-27T06:13:58;102139.97;;;2.77;100.00
4972;BME280;2501;51.214;6.768;2023-01-27T06:16:27;102137.84;;;2.85;100.00
4972;BME280;2501;51.214;6.768;2023-01-27T06:18:55;102138.13;;;2.75;100.00
4972;BME280;2501;51.214;6.768;2023-01-27T06:21:24;102137.16;;;2.88;100.00
4972;BME280;2501;51.214;6.768;2023-01-27T06:23:52;102139.94;;;2.91;100.00
4972;BME280;2501;51.214;6.768;2023-01-27T06:26:22;102145.63;;;2.85;100.00
4972;BME280;2501;51.214;6.768;2023-01-27T06:28:54;102143.66;;;2.96;100.00
4972;BME280;2501;51.214;6.768;2023-01-27T06:31:23;102149.41;;;2.90;100.00
4972;BME280;2501;51.214;6.768;2023-01-27T06:33:52;102155.91;;;2.98;100.00
4972;BME280;2501;51.214;6.768;2023-01-27T06:36:21;102157.78;;;3.01;100.00
4972;BME280;2501;51.214;6.768;2023-01-27T06:38:50;102155.19;;;3.01;100.00
4972;BME280;2501;51.214;6.768;2023-01-27T06:41:18;102162.97;;;3.01;100.00
4972;BME280;2501;51.214;6.768;2023-01-27T06:43:47;102163.63;;;3.11;100.00
4972;BME280;2501;51.214;6.768;2023-01-27T06:46:18;102166.72;;;2.91;100.00
4972;BME280;2501;51.214;6.768;2023-01-27T06:48:46;102163.78;;;3.00;100.00
4972;BME280;2501;51.214;6.768;2023-01-27T06:51:15;102173.34;;;2.86;100.00
4972;BME280;2501;51.214;6.768;2023-01-27T06:53:43;102177.91;;;3.05;100.00
4972;BME280;2501;51.214;6.768;2023-01-27T06:56:11;102175.31;;;3.05;100.00
4972;BME280;2501;51.214;6.768;2023-01-27T06:58:40;102176.03;;;3.02;100.00
4972;BME280;2501;51.214;6.768;2023-01-27T07:01:08;102184.06;;;3.07;100.00
4972;BME280;2501;51.214;6.768;2023-01-27T07:03:39;102185.22;;;2.97;100.00
4972;BME280;2501;51.214;6.768;2023-01-27T07:06:08;102180.50;;;3.05;100.00
4972;BME280;2501;51.214;6.768;2023-01-27T07:08:39;102178.19;;;3.09;100.00
4972;BME280;2501;51.214;6.768;2023-01-27T07:11:10;102181.50;;;3.07;100.00
4972;BME280;2501;51.214;6.768;2023-01-27T07:13:38;102194.88;;;3.00;100.00
4972;BME280;2501;51.214;6.768;2023-01-27T07:16:07;102185.69;;;3.20;100.00
4972;BME280;2501;51.214;6.768;2023-01-27T07:18:35;102184.16;;;3.23;100.00
4972;BME280;2501;51.214;6.768;2023-01-27T07:21:06;102187.66;;;3.24;100.00
4972;BME280;2501;51.214;6.768;2023-01-27T07:23:35;102190.75;;;3.33;100.00
4972;BME280;2501;51.214;6.768;2023-01-27T07:26:04;102192.28;;;3.29;100.00
4972;BME280;2501;51.214;6.768;2023-01-27T07:28:32;102193.19;;;3.30;100.00
4972;BME280;2501;51.214;6.768;2023-01-27T07:31:01;102191.84;;;3.36;100.00
4972;BME280;2501;51.214;6.768;2023-01-27T07:33:30;102184.25;;;3.39;100.00
4972;BME280;2501;51.214;6.768;2023-01-27T07:35:58;102186.38;;;3.32;100.00
4972;BME280;2501;51.214;6.768;2023-01-27T07:38:30;102196.66;;;3.30;100.00
4972;BME280;2501;51.214;6.768;2023-01-27T07:41:02;102194.06;;;3.30;100.00
4972;BME280;2501;51.214;6.768;2023-01-27T07:43:31;102192.84;;;3.24;100.00
4972;BME280;2501;51.214;6.768;2023-01-27T07:46:00;102197.31;;;3.26;100.00
4972;BME280;2501;51.214;6.768;2023-01-27T07:48:28;102195.97;;;3.18;100.00
4972;BME280;2501;51.214;6.768;2023-01-27T07:50:57;102191.25;;;3.26;100.00
4972;BME280;2501;51.214;6.768;2023-01-27T07:53:25;102198.75;;;3.21;100.00
4972;BME280;2501;51.214;6.768;2023-01-27T07:55:58;102197.47;;;3.14;100.00
4972;BME280;2501;51.214;6.768;2023-01-27T07:58:26;102211.34;;;3.15;100.00
4972;BME280;2501;51.214;6.768;2023-01-27T08:00:55;102208.22;;;3.21;100.00
4972;BME280;2501;51.214;6.768;2023-01-27T08:03:24;102201.50;;;3.24;100.00
4972;BME280;2501;51.214;6.768;2023-01-27T08:05:53;102205.25;;;3.29;100.00
4972;BME280;2501;51.214;6.768;2023-01-27T08:08:21;102206.59;;;3.37;100.00
4972;BME280;2501;51.214;6.768;2023-01-27T08:10:50;102211.78;;;3.37;100.00
4972;BME280;2501;51.214;6.768;2023-01-27T08:13:21;102214.47;;;3.39;100.00
4972;BME280;2501;51.214;6.768;2023-01-27T08:15:54;102219.13;;;3.44;100.00
4972;BME280;2501;51.214;6.768;2023-01-27T08:18:23;102216.53;;;3.44;100.00
4972;BME280;2501;51.214;6.768;2023-01-27T08:20:52;102217.06;;;3.39;100.00
4972;BME280;2501;51.214;6.768;2023-01-27T08:23:21;102211.59;;;3.49;100.00
4972;BME280;2501;51.214;6.768;2023-01-27T08:25:50;102214.09;;;3.47;100.00
4972;BME280;2501;51.214;6.768;2023-01-27T08:28:22;102211.59;;;3.49;100.00
4972;BME280;2501;51.214;6.768;2023-01-27T08:30:51;102210.00;;;3.36;100.00
4972;BME280;2501;51.214;6.768;2023-01-27T08:33:22;102208.47;;;3.55;100.00
4972;BME280;2501;51.214;6.768;2023-01-27T08:35:51;102211.69;;;3.50;100.00
4972;BME280;2501;51.214;6.768;2023-01-27T08:38:19;102209.38;;;3.40;99.94
4972;BME280;2501;51.214;6.768;2023-01-27T08:40:48;102209.34;;;3.55;99.53
4972;BME280;2501;51.214;6.768;2023-01-27T08:43:16;102211.16;;;3.56;99.49
4972;BME280;2501;51.214;6.768;2023-01-27T08:45:50;102213.84;;;3.58;98.89
4972;BME280;2501;51.214;6.768;2023-01-27T08:48:19;102214.47;;;3.54;98.77
4972;BME280;2501;51.214;6.768;2023-01-27T08:50:48;102216.75;;;3.64;98.71
4972;BME280;2501;51.214;6.768;2023-01-27T08:53:17;102206.38;;;3.64;98.41
4972;BME280;2501;51.214;6.768;2023-01-27T08:55:46;102210.78;;;3.50;98.25
4972;BME280;2501;51.214;6.768;2023-01-27T08:58:15;102208.53;;;3.71;98.61
4972;BME280;2501;51.214;6.768;2023-01-27T09:00:46;102212.63;;;3.82;98.20
4972;BME280;2501;51.214;6.768;2023-01-27T09:03:16;102210.69;;;3.78;97.91
4972;BME280;2501;51.214;6.768;2023-01-27T09:05:46;102223.38;;;3.73;97.63
4972;BME280;2501;51.214;6.768;2023-01-27T09:08:14;102224.78;;;3.83;97.60
4972;BME280;2501;51.214;6.768;2023-01-27T09:10:43;102223.44;;;3.90;97.50
4972;BME280;2501;51.214;6.768;2023-01-27T09:13:11;102220.88;;;3.75;97.49
4972;BME280;2501;51.214;6.768;2023-01-27T09:15:42;102232.47;;;3.96;97.59
4972;BME280;2501;51.214;6.768;2023-01-27T09:18:13;102229.88;;;3.96;97.36
4972;BME280;2501;51.214;6.768;2023-01-27T09:20:41;102239.59;;;4.00;97.26
4972;BME280;2501;51.214;6.768;2023-01-27T09:23:10;102235.16;;;3.98;97.00
4972;BME280;2501;51.214;6.768;2023-01-27T09:25:38;102253.47;;;4.01;97.00
4972;BME280;2501;51.214;6.768;2023-01-27T09:28:07;102245.63;;;3.84;97.19
4972;BME280;2501;51.214;6.768;2023-01-27T09:30:41;102248.19;;;3.99;96.93
4972;BME280;2501;51.214;6.768;2023-01-27T09:33:13;102261.25;;;4.01;96.83
4972;BME280;2501;51.214;6.768;2023-01-27T09:35:44;102248.94;;;3.97;96.88
4972;BME280;2501;51.214;6.768;2023-01-27T09:38:15;102262.72;;;3.81;97.17
4972;BME280;2501;51.214;6.768;2023-01-27T09:44:14;102258.63;;;3.84;97.64
4972;BME280;2501;51.214;6.768;2023-01-27T09:46:59;102257.28;;;3.91;97.90
4972;BME280;2501;51.214;6.768;2023-01-27T09:49:59;102260.28;;;3.99;97.63
4972;BME280;2501;51.214;6.768;2023-01-27T09:52:55;102271.47;;;4.12;97.57
4972;BME280;2501;51.214;6.768;2023-01-27T09:55:38;102269.25;;;3.89;97.82
4972;BME280;2501;51.214;6.768;2023-01-27T09:58:15;102263.59;;;4.11;97.51
4972;BME280;2501;51.214;6.768;2023-01-27T10:00:53;102261.63;;;4.07;96.90
4972;BME280;2501;51.214;6.768;2023-01-27T10:03:44;102258.97;;;4.22;96.80
4972;BME280;2501;51.214;6.768;2023-01-27T10:06:32;102261.56;;;4.22;96.57
4972;BME280;2501;51.214;6.768;2023-01-27T10:09:27;102251.38;;;4.25;96.38
4972;BME280;2501;51.214;6.768;2023-01-27T10:12:12;102260.28;;;4.13;96.16
4972;BME280;2501;51.214;6.768;2023-01-27T10:14:51;102262.28;;;4.19;96.25
4972;BME280;2501;51.214;6.768;2023-01-27T10:17:31;102257.44;;;4.25;96.45
4972;BME280;2501;51.214;6.768;2023-01-27T10:20:17;102262.91;;;4.30;96.40
4972;BME280;2501;51.214;6.768;2023-01-27T10:22:56;102257.81;;;4.31;96.38
4972;BME280;2501;51.214;6.768;2023-01-27T10:25:34;102262.28;;;4.19;96.56
4972;BME280;2501;51.214;6.768;2023-01-27T10:28:10;102265.50;;;4.30;96.69
4972;BME280;2501;51.214;6.768;2023-01-27T10:30:45;102268.00;;;4.28;96.76
4972;BME280;2501;51.214;6.768;2023-01-27T10:33:18;102264.44;;;4.26;97.33
4972;BME280;2501;51.214;6.768;2023-01-27T10:35:51;102270.88;;;4.33;97.22
4972;BME280;2501;51.214;6.768;2023-01-27T10:38:31;102262.09;;;4.31;97.38
4972;BME280;2501;51.214;6.768;2023-01-27T10:41:10;102257.09;;;4.19;97.11
4972;BME280;2501;51.214;6.768;2023-01-27T10:43:50;102259.66;;;4.34;97.57
4972;BME280;2501;51.214;6.768;2023-01-27T10:46:28;102266.59;;;4.18;97.39
4972;BME280;2501;51.214;6.768;2023-01-27T10:49:05;102264.13;;;4.36;97.66
4972;BME280;2501;51.214;6.768;2023-01-27T10:51:39;102259.59;;;4.17;97.99
4972;BME280;2501;51.214;6.768;2023-01-27T10:54:16;102258.47;;;4.12;97.93
4972;BME280;2501;51.214;6.768;2023-01-27T10:56:50;102256.31;;;4.36;98.34
4972;BME280;2501;51.214;6.768;2023-01-27T10:59:26;102251.03;;;4.35;98.02
4972;BME280;2501;51.214;6.768;2023-01-27T11:01:59;102255.34;;;4.34;97.99
4972;BME280;2501;51.214;6.768;2023-01-27T11:04:34;102243.28;;;4.51;97.63
4972;BME280;2501;51.214;6.768;2023-01-27T11:07:05;102249.06;;;4.62;97.13
4972;BME280;2501;51.214;6.768;2023-01-27T11:09:41;102266.09;;;4.57;96.88
4972;BME280;2501;51.214;6.768;2023-01-27T11:12:15;102244.97;;;4.50;97.03
4972;BME280;2501;51.214;6.768;2023-01-27T11:14:45;102247.00;;;4.40;96.72
4972;BME280;2501;51.214;6.768;2023-01-27T11:17:19;102238.56;;;4.44;97.20
4972;BME280;2501;51.214;6.768;2023-01-27T11:19:55;102246.31;;;4.75;96.37
4972;BME280;2501;51.214;6.768;2023-01-27T11:22:29;102235.25;;;4.63;96.13
4972;BME280;2501;51.214;6.768;2023-01-27T11:25:15;102234.28;;;4.44;95.94
4972;BME280;2501;51.214;6.768;2023-01-27T11:27:55;102237.03;;;4.31;96.36
4972;BME280;2501;51.214;6.768;2023-01-27T11:30:35;102236.63;;;4.40;97.24
4972;BME280;2501;51.214;6.768;2023-01-27T11:33:16;102236.31;;;4.66;96.40
4972;BME280;2501;51.214;6.768;2023-01-27T11:35:53;102241.56;;;4.68;95.62
4972;BME280;2501;51.214;6.768;2023-01-27T11:38:22;102242.00;;;4.59;95.69
4972;BME280;2501;51.214;6.768;2023-01-27T11:40:53;102240.66;;;4.51;95.42
4972;BME280;2501;51.214;6.768;2023-01-27T11:43:23;102247.56;;;4.50;95.29
4972;BME280;2501;51.214;6.768;2023-01-27T11:45:59;102243.94;;;4.47;95.17
4972;BME280;2501;51.214;6.768;2023-01-27T11:48:36;102243.63;;;4.57;95.16
4972;BME280;2501;51.214;6.768;2023-01-27T11:51:13;102244.97;;;4.50;94.95
4972;BME280;2501;51.214;6.768;2023-01-27T11:53:48;102247.63;;;4.67;94.88
4972;BME280;2501;51.214;6.768;2023-01-27T11:56:21;102242.34;;;4.65;94.24
4972;BME280;2501;51.214;6.768;2023-01-27T11:58:55;102240.94;;;4.55;94.79
4972;BME280;2501;51.214;6.768;2023-01-27T12:01:36;102239.22;;;4.40;94.79
4972;BME280;2501;51.214;6.768;2023-01-27T12:04:12;102236.06;;;4.62;94.24
4972;BME280;2501;51.214;6.768;2023-01-27T12:06:47;102247.44;;;4.64;93.89
4972;BME280;2501;51.214;6.768;2023-01-27T12:09:29;102238.03;;;4.66;93.94
4972;BME280;2501;51.214;6.768;2023-01-27T12:12:19;102238.25;;;4.70;94.22
4972;BME280;2501;51.214;6.768;2023-01-27T12:14:49;102224.84;;;4.46;93.93
4972;BME280;2501;51.214;6.768;2023-01-27T12:17:27;102226.88;;;4.68;94.47
4972;BME280;2501;51.214;6.768;2023-01-27T12:19:58;102224.16;;;4.65;93.67
4972;BME280;2501;51.214;6.768;2023-01-27T12:22:31;102234.13;;;4.58;93.46
4972;BME280;2501;51.214;6.768;2023-01-27T12:25:03;102223.16;;;4.79;93.18
4972;BME280;2501;51.214;6.768;2023-01-27T12:27:39;102224.88;;;4.63;92.79
4972;BME280;2501;51.214;6.768;2023-01-27T12:30:19;102223.00;;;4.76;92.62
4972;BME280;2501;51.214;6.768;2023-01-27T12:32:48;102219.97;;;4.52;92.12
4972;BME280;2501;51.214;6.768;2023-01-27T12:35:19;102216.34;;;4.49;93.01
4972;BME280;2501;51.214;6.768;2023-01-27T12:37:54;102213.88;;;4.68;92.95
4972;BME280;2501;51.214;6.768;2023-01-27T12:40:26;102211.19;;;4.50;93.16
4972;BME280;2501;51.214;6.768;2023-01-27T12:43:09;102216.09;;;4.61;93.28
4972;BME280;2501;51.214;6.768;2023-01-27T12:45:39;102214.38;;;4.61;93.10
4972;BME280;2501;51.214;6.768;2023-01-27T12:48:28;102218.28;;;4.53;93.22
4972;BME280;2501;51.214;6.768;2023-01-27T12:51:04;102212.09;;;4.35;94.13
4972;BME280;2501;51.214;6.768;2023-01-27T12:53:33;102222.00;;;4.26;93.77
4972;BME280;2501;51.214;6.768;2023-01-27T12:56:09;102218.50;;;4.41;93.92
4972;BME280;2501;51.214;6.768;2023-01-27T12:58:42;102214.63;;;4.49;94.13
4972;BME280;2501;51.214;6.768;2023-01-27T13:01:22;102213.78;;;4.50;93.64
4972;BME280;2501;51.214;6.768;2023-01-27T13:03:54;102213.25;;;4.56;93.27
4972;BME280;2501;51.214;6.768;2023-01-27T13:06:32;102219.03;;;4.19;93.49
4972;BME280;2501;51.214;6.768;2023-01-27T13:09:02;102217.53;;;4.55;93.61
4972;BME280;2501;51.214;6.768;2023-01-27T13:11:34;102218.03;;;4.48;92.74
4972;BME280;2501;51.214;6.768;2023-01-27T13:14:15;102225.25;;;4.54;92.92
4972;BME280;2501;51.214;6.768;2023-01-27T13:16:49;102212.34;;;4.55;92.46
4972;BME280;2501;51.214;6.768;2023-01-27T13:19:18;102216.19;;;4.62;91.65
4972;BME280;2501;51.214;6.768;2023-01-27T13:21:48;102222.34;;;4.64;91.32
4972;BME280;2501;51.214;6.768;2023-01-27T13:24:25;102216.63;;;4.39;91.53
4972;BME280;2501;51.214;6.768;2023-01-27T13:26:55;102218.88;;;4.64;90.98
4972;BME280;2501;51.214;6.768;2023-01-27T13:29:31;102222.66;;;4.38;90.70
4972;BME280;2501;51.214;6.768;2023-01-27T13:32:05;102226.56;;;4.62;90.68
4972;BME280;2501;51.214;6.768;2023-01-27T13:34:40;102228.59;;;4.68;90.11
4972;BME280;2501;51.214;6.768;2023-01-27T13:37:15;102227.13;;;4.73;89.58
4972;BME280;2501;51.214;6.768;2023-01-27T13:39:56;102228.44;;;4.65;89.11
4972;BME280;2501;51.214;6.768;2023-01-27T13:42:32;102237.34;;;4.53;88.65
4972;BME280;2501;51.214;6.768;2023-01-27T13:45:12;102236.22;;;4.48;88.81
4972;BME280;2501;51.214;6.768;2023-01-27T13:47:48;102237.69;;;4.43;88.80
4972;BME280;2501;51.214;6.768;2023-01-27T13:50:25;102240.72;;;4.67;87.69